createdAt,value
2023-04-08T00:01:45.618Z,3.70
2023-04-08T00:04:19.898Z,3.71
2023-04-08T00:06:52.196Z,3.70
2023-04-08T00:09:24.612Z,3.66
2023-04-08T00:12:05.222Z,3.56
2023-04-08T00:14:38.272Z,3.53
2023-04-08T00:17:10.601Z,3.55
2023-04-08T00:19:43.060Z,3.57
2023-04-08T00:22:15.378Z,3.53
2023-04-08T00:24:47.698Z,3.51
2023-04-08T00:27:20.074Z,3.42
2023-04-08T00:29:53.050Z,3.43
2023-04-08T00:32:25.445Z,3.44
2023-04-08T00:34:58.454Z,3.40
2023-04-08T00:37:31.131Z,3.35
2023-04-08T00:40:03.684Z,3.38
2023-04-08T00:42:36.052Z,3.44
2023-04-08T00:45:10.488Z,3.35
2023-04-08T00:47:43.435Z,3.35
2023-04-08T00:50:16.018Z,3.41
2023-04-08T00:52:48.311Z,3.31
2023-04-08T00:55:20.686Z,3.31
2023-04-08T00:57:53.598Z,3.26
2023-04-08T01:00:28.780Z,3.27
2023-04-08T01:03:08.964Z,3.21
2023-04-08T01:05:53.083Z,3.29
2023-04-08T01:08:29.236Z,3.24
2023-04-08T01:11:03.870Z,3.25
2023-04-08T01:13:40.145Z,3.26
2023-04-08T01:16:15.352Z,3.28
2023-04-08T01:18:50.979Z,3.30
2023-04-08T01:21:25.021Z,3.30
2023-04-08T01:24:06.406Z,3.06
2023-04-08T01:26:41.198Z,2.95
2023-04-08T01:29:15.545Z,2.97
2023-04-08T01:31:48.665Z,2.97
2023-04-08T01:34:22.103Z,2.97
2023-04-08T01:36:57.975Z,3.00
2023-04-08T01:39:31.321Z,3.03
2023-04-08T01:42:05.233Z,3.04
2023-04-08T01:44:39.971Z,3.04
2023-04-08T01:47:13.328Z,3.06
2023-04-08T01:49:46.422Z,3.02
2023-04-08T01:52:20.766Z,2.99
2023-04-08T01:54:53.169Z,2.94
2023-04-08T01:57:31.623Z,2.90
2023-04-08T02:00:08.014Z,2.89
2023-04-08T02:02:53.164Z,2.99
2023-04-08T02:05:25.788Z,3.00
2023-04-08T02:07:58.085Z,3.09
2023-04-08T02:10:30.449Z,3.07
2023-04-08T02:13:03.538Z,3.14
2023-04-08T02:15:41.766Z,3.13
2023-04-08T02:18:16.759Z,3.22
2023-04-08T02:20:57.269Z,3.26
2023-04-08T02:23:33.097Z,3.25
2023-04-08T02:26:08.335Z,3.29
2023-04-08T02:28:42.614Z,3.33
2023-04-08T02:31:17.411Z,3.31
2023-04-08T02:33:52.549Z,3.29
2023-04-08T02:36:26.718Z,3.31
2023-04-08T02:38:59.092Z,3.36
2023-04-08T02:41:31.551Z,3.37
2023-04-08T02:44:04.607Z,3.35
2023-04-08T02:46:36.931Z,3.33
2023-04-08T02:49:09.222Z,3.33
2023-04-08T02:51:42.139Z,3.33
2023-04-08T02:54:14.807Z,3.29
2023-04-08T02:56:47.092Z,3.36
2023-04-08T02:59:20.057Z,3.38
2023-04-08T03:01:52.435Z,3.32
2023-04-08T03:04:24.766Z,3.31
2023-04-08T03:06:57.103Z,3.31
2023-04-08T03:09:29.471Z,3.29
2023-04-08T03:12:01.895Z,3.25
2023-04-08T03:14:34.848Z,3.27
2023-04-08T03:17:07.180Z,3.25
2023-04-08T03:19:39.429Z,3.24
2023-04-08T03:22:13.660Z,3.16
2023-04-08T03:24:45.963Z,3.33
2023-04-08T03:27:18.294Z,3.26
2023-04-08T03:29:52.347Z,3.26
2023-04-08T03:32:24.951Z,3.17
2023-04-08T03:34:57.278Z,3.28
2023-04-08T03:37:29.729Z,3.26
2023-04-08T03:40:02.168Z,3.25
2023-04-08T03:42:34.520Z,3.23
2023-04-08T03:45:08.448Z,3.22
2023-04-08T03:47:41.222Z,3.27
2023-04-08T03:50:13.626Z,3.28
2023-04-08T03:52:46.143Z,3.24
2023-04-08T03:55:18.408Z,3.23
2023-04-08T03:57:50.719Z,3.20
2023-04-08T04:00:23.890Z,3.12
2023-04-08T04:02:56.489Z,3.15
2023-04-08T04:05:28.906Z,3.18
2023-04-08T04:08:01.387Z,2.85
2023-04-08T04:10:33.736Z,2.78
2023-04-08T04:13:06.056Z,2.89
2023-04-08T04:15:39.430Z,2.80
2023-04-08T04:18:11.906Z,2.82
2023-04-08T04:20:44.528Z,2.88
2023-04-08T04:23:16.851Z,2.71
2023-04-08T04:25:49.183Z,2.62
2023-04-08T04:28:21.441Z,2.66
2023-04-08T04:30:56.333Z,2.58
2023-04-08T04:33:28.972Z,2.61
2023-04-08T04:36:01.370Z,2.49
2023-04-08T04:38:33.728Z,2.73
2023-04-08T04:41:06.393Z,2.81
2023-04-08T04:43:38.679Z,2.72
2023-04-08T04:46:11.677Z,2.91
2023-04-08T04:48:44.217Z,3.01
2023-04-08T04:51:16.500Z,3.05
2023-04-08T04:53:49.364Z,3.06
2023-04-08T04:56:21.738Z,3.16
2023-04-08T04:58:54.049Z,3.19
2023-04-08T05:01:28.244Z,3.21
2023-04-08T05:04:00.944Z,3.21
2023-04-08T05:06:33.428Z,3.16
2023-04-08T05:09:05.793Z,3.13
2023-04-08T05:11:38.145Z,3.07
2023-04-08T05:14:10.488Z,3.03
2023-04-08T05:16:43.453Z,2.95
2023-04-08T05:19:15.743Z,2.92
2023-04-08T05:21:48.047Z,2.99
2023-04-08T05:24:20.358Z,2.93
2023-04-08T05:26:52.716Z,3.00
2023-04-08T05:29:25.146Z,3.04
2023-04-08T05:31:58.780Z,3.14
2023-04-08T05:34:31.600Z,3.22
2023-04-08T05:37:03.911Z,3.29
2023-04-08T05:39:36.433Z,3.35
2023-04-08T05:42:09.088Z,3.38
2023-04-08T05:44:43.170Z,3.45
2023-04-08T05:47:16.103Z,3.56
2023-04-08T05:49:50.218Z,3.67
2023-04-08T05:52:23.559Z,3.80
2023-04-08T05:54:55.831Z,3.86
2023-04-08T05:57:28.157Z,4.01
2023-04-08T06:00:00.484Z,3.97
2023-04-08T06:02:33.909Z,4.06
2023-04-08T06:05:06.872Z,4.10
2023-04-08T06:07:39.288Z,4.20
2023-04-08T06:10:11.713Z,4.16
2023-04-08T06:12:44.082Z,4.10
2023-04-08T06:15:16.511Z,4.15
2023-04-08T06:17:49.472Z,4.07
2023-04-08T06:20:21.791Z,4.15
2023-04-08T06:22:54.114Z,4.21
2023-04-08T06:25:26.636Z,4.35
2023-04-08T06:27:58.902Z,4.39
2023-04-08T06:30:31.271Z,4.50
2023-04-08T06:33:04.391Z,4.63
2023-04-08T06:35:37.124Z,4.75
2023-04-08T06:38:09.496Z,4.82
2023-04-08T06:40:41.935Z,4.94
2023-04-08T06:43:14.202Z,4.97
2023-04-08T06:45:46.739Z,5.04
2023-04-08T06:48:20.032Z,5.08
2023-04-08T06:50:52.315Z,5.13
2023-04-08T06:53:25.257Z,5.08
2023-04-08T06:55:57.563Z,4.99
2023-04-08T06:58:30.199Z,5.01
2023-04-08T07:01:02.701Z,4.92
2023-04-08T07:03:35.707Z,4.89
2023-04-08T07:06:08.064Z,4.87
2023-04-08T07:08:40.391Z,4.86
2023-04-08T07:11:12.676Z,4.93
2023-04-08T07:13:45.008Z,4.95
2023-04-08T07:16:17.345Z,4.96
2023-04-08T07:18:51.119Z,5.06
2023-04-08T07:21:23.522Z,5.22
2023-04-08T07:23:55.897Z,5.31
2023-04-08T07:26:28.248Z,5.31
2023-04-08T07:29:00.941Z,5.45
2023-04-08T07:31:33.389Z,5.56
2023-04-08T07:34:06.347Z,5.54
2023-04-08T07:36:38.637Z,5.60
2023-04-08T07:39:10.974Z,5.72
2023-04-08T07:41:43.368Z,5.60
2023-04-08T07:44:16.561Z,5.77
2023-04-08T07:46:50.925Z,5.87
2023-04-08T07:49:23.904Z,5.64
2023-04-08T07:51:56.846Z,5.88
2023-04-08T07:54:31.192Z,5.84
2023-04-08T07:57:03.592Z,5.83
2023-04-08T07:59:36.243Z,5.92
2023-04-08T08:02:08.694Z,5.93
2023-04-08T08:04:41.842Z,5.95
2023-04-08T08:07:14.486Z,6.14
2023-04-08T08:09:46.768Z,6.29
2023-04-08T08:12:19.120Z,6.45
2023-04-08T08:14:54.099Z,6.37
2023-04-08T08:17:29.446Z,6.34
2023-04-08T08:20:04.236Z,6.56
2023-04-08T08:22:47.137Z,6.52
2023-04-08T08:25:28.853Z,6.62
2023-04-08T08:28:01.439Z,6.64
2023-04-08T08:30:34.185Z,6.66
2023-04-08T08:33:06.646Z,6.72
2023-04-08T08:35:39.660Z,6.59
2023-04-08T08:38:13.126Z,6.54
2023-04-08T08:40:45.554Z,6.53
2023-04-08T08:43:18.041Z,6.51
2023-04-08T08:45:50.571Z,6.74
2023-04-08T08:48:23.073Z,6.52
2023-04-08T08:50:56.074Z,6.58
2023-04-08T08:53:30.377Z,6.60
2023-04-08T08:58:38.874Z,6.90
2023-04-08T09:01:30.989Z,7.05
2023-04-08T09:04:13.264Z,7.15
2023-04-08T09:06:47.073Z,7.29
2023-04-08T09:09:20.797Z,7.45
2023-04-08T09:12:03.477Z,7.45
2023-04-08T09:14:35.813Z,7.65
2023-04-08T09:17:08.244Z,7.70
2023-04-08T09:20:05.797Z,7.89
2023-04-08T09:22:58.585Z,8.12
2023-04-08T09:25:32.154Z,8.28
2023-04-08T09:28:04.863Z,8.41
2023-04-08T09:30:37.201Z,8.42
2023-04-08T09:33:09.548Z,8.64
2023-04-08T09:35:43.066Z,8.70
2023-04-08T09:38:16.580Z,8.77
2023-04-08T09:40:49.151Z,8.91
2023-04-08T09:43:24.713Z,9.07
2023-04-08T09:46:00.967Z,9.20
2023-04-08T09:48:42.650Z,9.46
2023-04-08T09:51:16.291Z,9.59
2023-04-08T09:53:55.632Z,9.81
2023-04-08T09:56:38.918Z,9.66
2023-04-08T09:59:16.639Z,9.90
2023-04-08T10:01:53.184Z,10.16
2023-04-08T10:04:27.629Z,10.05
2023-04-08T10:07:04.691Z,9.86
2023-04-08T10:09:38.347Z,9.88
2023-04-08T10:12:10.676Z,9.85
2023-04-08T10:15:17.898Z,9.60
2023-04-08T10:17:50.926Z,9.79
2023-04-08T10:20:43.114Z,9.83
2023-04-08T10:23:17.202Z,10.07
2023-04-08T10:25:50.146Z,10.32
2023-04-08T10:28:26.488Z,10.37
2023-04-08T10:30:58.823Z,10.25
2023-04-08T10:33:32.892Z,10.37
2023-04-08T10:36:12.755Z,10.28
2023-04-08T10:38:46.602Z,10.47
2023-04-08T10:41:24.445Z,10.52
2023-04-08T10:43:56.819Z,10.60
2023-04-08T10:46:29.301Z,10.82
2023-04-08T10:49:01.942Z,10.84
2023-04-08T10:51:34.849Z,10.89
2023-04-08T10:54:07.915Z,10.86
2023-04-08T10:56:48.895Z,11.31
2023-04-08T10:59:28.312Z,11.18
2023-04-08T11:02:13.515Z,10.97
2023-04-08T11:04:47.608Z,10.90
2023-04-08T11:07:20.433Z,11.13
2023-04-08T11:09:52.722Z,11.34
2023-04-08T11:12:26.562Z,11.31
2023-04-08T11:14:58.929Z,11.29
2023-04-08T11:17:33.950Z,11.33
2023-04-08T11:20:08.834Z,11.31
2023-04-08T11:22:41.316Z,11.53
2023-04-08T11:25:14.242Z,11.53
2023-04-08T11:27:49.721Z,11.65
2023-04-08T11:30:23.362Z,11.58
2023-04-08T11:32:57.254Z,11.74
2023-04-08T11:35:30.199Z,11.76
2023-04-08T11:38:04.914Z,11.65
2023-04-08T11:40:37.356Z,11.65
2023-04-08T11:43:11.385Z,11.81
2023-04-08T11:45:43.792Z,11.95
2023-04-08T11:48:17.323Z,12.01
2023-04-08T11:51:03.209Z,12.10
2023-04-08T11:53:37.010Z,12.43
2023-04-08T11:56:16.707Z,12.37
2023-04-08T11:58:49.534Z,12.30
2023-04-08T12:01:21.781Z,12.37
2023-04-08T12:03:58.849Z,12.14
2023-04-08T12:06:31.796Z,12.13
2023-04-08T12:09:04.423Z,12.07
2023-04-08T12:11:36.722Z,12.11
2023-04-08T12:14:10.089Z,11.95
2023-04-08T12:16:42.729Z,11.80
2023-04-08T12:19:15.472Z,11.97
2023-04-08T12:21:47.734Z,12.11
2023-04-08T12:24:20.431Z,12.17
2023-04-08T12:26:52.691Z,12.17
2023-04-08T12:29:25.628Z,11.37
2023-04-08T12:31:58.212Z,11.27
2023-04-08T12:34:30.834Z,11.03
2023-04-08T12:37:03.219Z,10.78
2023-04-08T12:39:35.602Z,10.68
2023-04-08T12:42:08.388Z,10.68
2023-04-08T12:44:41.512Z,10.70
2023-04-08T12:47:13.793Z,10.70
2023-04-08T12:49:49.779Z,10.84
2023-04-08T12:52:23.487Z,10.95
2023-04-08T12:54:55.966Z,10.71
2023-04-08T12:57:28.323Z,10.93
2023-04-08T13:00:01.645Z,10.96
2023-04-08T13:02:34.109Z,10.89
2023-04-08T13:05:06.767Z,11.06
2023-04-08T13:07:39.102Z,10.94
2023-04-08T13:10:11.407Z,11.14
2023-04-08T13:12:43.770Z,11.08
2023-04-08T13:15:16.836Z,11.22
2023-04-08T13:17:49.166Z,11.01
2023-04-08T13:20:25.001Z,11.07
2023-04-08T13:22:57.365Z,11.09
2023-04-08T13:25:29.782Z,10.94
2023-04-08T13:28:02.632Z,10.98
2023-04-08T13:30:35.687Z,11.32
2023-04-08T13:33:08.035Z,11.43
2023-04-08T13:35:40.620Z,11.51
2023-04-08T13:38:13.145Z,11.76
2023-04-08T13:40:46.704Z,11.79
2023-04-08T13:43:20.529Z,11.67
2023-04-08T13:45:53.880Z,11.43
2023-04-08T13:48:26.420Z,11.14
2023-04-08T13:50:58.878Z,10.79
2023-04-08T13:53:31.641Z,10.60
2023-04-08T13:56:04.406Z,10.45
2023-04-08T13:58:37.128Z,10.51
2023-04-08T14:01:10.876Z,10.50
2023-04-08T14:03:43.825Z,10.52
2023-04-08T14:06:16.833Z,10.30
2023-04-08T14:08:50.157Z,10.26
2023-04-08T14:11:23.634Z,10.29
2023-04-08T14:13:56.684Z,10.15
2023-04-08T14:16:32.092Z,10.18
2023-04-08T14:19:04.773Z,10.26
2023-04-08T14:21:38.468Z,10.26
2023-04-08T14:24:10.988Z,10.28
2023-04-08T14:26:43.449Z,10.33
2023-04-08T14:29:15.963Z,10.30
2023-04-08T14:31:49.736Z,10.35
2023-04-08T14:34:22.991Z,10.40
2023-04-08T14:36:55.864Z,10.40
2023-04-08T14:39:28.430Z,10.03
2023-04-08T14:42:01.798Z,10.04
2023-04-08T14:44:34.615Z,10.25
2023-04-08T14:47:08.056Z,10.20
2023-04-08T14:49:40.711Z,10.18
2023-04-08T14:52:13.500Z,9.96
2023-04-08T14:54:47.690Z,9.88
2023-04-08T14:57:20.240Z,9.93
2023-04-08T14:59:52.841Z,9.76
2023-04-08T15:02:27.100Z,9.74
2023-04-08T15:04:59.855Z,9.88
2023-04-08T15:07:32.825Z,9.86
2023-04-08T15:10:06.939Z,9.94
2023-04-08T15:12:40.222Z,9.99
2023-04-08T15:15:13.244Z,10.05
2023-04-08T15:17:46.879Z,10.13
2023-04-08T15:20:19.587Z,10.20
2023-04-08T15:22:52.365Z,10.36
2023-04-08T15:25:25.358Z,10.42
2023-04-08T15:27:57.865Z,10.54
2023-04-08T15:30:34.595Z,10.56
2023-04-08T15:33:08.169Z,10.55
2023-04-08T15:35:41.049Z,10.40
2023-04-08T15:38:13.573Z,10.38
2023-04-08T15:40:48.062Z,10.37
2023-04-08T15:43:20.830Z,10.26
2023-04-08T15:45:53.310Z,10.20
2023-04-08T15:48:26.358Z,10.15
2023-04-08T15:50:58.801Z,9.93
2023-04-08T15:53:31.999Z,9.82
2023-04-08T15:56:04.997Z,9.74
2023-04-08T15:58:37.443Z,9.25
2023-04-08T16:01:10.068Z,8.85
2023-04-08T16:03:43.306Z,8.40
2023-04-08T16:06:15.888Z,8.30
2023-04-08T16:08:49.419Z,8.16
2023-04-08T16:11:23.194Z,7.83
2023-04-08T16:13:55.534Z,7.26
2023-04-08T16:16:28.228Z,7.55
2023-04-08T16:19:01.625Z,7.29
2023-04-08T16:21:34.343Z,6.85
2023-04-08T16:24:07.381Z,6.80
2023-04-08T16:26:40.828Z,6.90
2023-04-08T16:29:13.280Z,7.04
2023-04-08T16:31:46.451Z,7.14
2023-04-08T16:34:19.633Z,7.23
2023-04-08T16:36:52.850Z,7.14
2023-04-08T16:39:25.614Z,7.02
2023-04-08T16:41:59.056Z,6.93
2023-04-08T16:44:31.791Z,7.05
2023-04-08T16:47:05.040Z,7.18
2023-04-08T16:49:38.238Z,7.22
2023-04-08T16:52:10.571Z,7.26
2023-04-08T16:54:44.606Z,7.17
2023-04-08T16:57:18.242Z,7.23
2023-04-08T16:59:51.559Z,7.30
2023-04-08T17:02:25.090Z,7.35
2023-04-08T17:04:59.292Z,7.29
2023-04-08T17:07:32.863Z,7.32
2023-04-08T17:10:06.815Z,7.34
2023-04-08T17:12:39.797Z,7.32
2023-04-08T17:15:12.385Z,7.30
2023-04-08T17:17:45.589Z,7.25
2023-04-08T17:20:20.002Z,7.29
2023-04-08T17:22:52.616Z,7.25
2023-04-08T17:25:25.834Z,7.25
2023-04-08T17:27:58.400Z,7.34
2023-04-08T17:30:30.875Z,7.29
2023-04-08T17:33:04.186Z,7.36
2023-04-08T17:35:37.675Z,7.29
2023-04-08T17:38:10.421Z,7.30
2023-04-08T17:40:43.638Z,7.35
2023-04-08T17:43:17.939Z,7.27
2023-04-08T17:45:51.650Z,7.16
2023-04-08T17:48:24.202Z,7.21
2023-04-08T17:51:02.730Z,7.16
2023-04-08T17:53:35.519Z,7.09
2023-04-08T17:56:07.961Z,7.09
2023-04-08T17:58:41.120Z,7.15
2023-04-08T18:01:14.631Z,7.07
2023-04-08T18:03:47.931Z,7.07
2023-04-08T18:06:22.059Z,7.04
2023-04-08T18:08:54.647Z,7.07
2023-04-08T18:11:27.007Z,7.16
2023-04-08T18:13:59.450Z,7.19
2023-04-08T18:16:32.732Z,7.20
2023-04-08T18:19:06.264Z,7.18
2023-04-08T18:21:39.497Z,7.21
2023-04-08T18:24:12.736Z,7.22
2023-04-08T18:26:49.150Z,7.27
2023-04-08T18:29:26.774Z,7.18
2023-04-08T18:31:59.119Z,7.19
2023-04-08T18:34:31.792Z,7.19
2023-04-08T18:37:07.188Z,7.19
2023-04-08T18:39:40.335Z,7.13
2023-04-08T18:42:12.727Z,7.10
2023-04-08T18:44:45.064Z,7.06
2023-04-08T18:47:18.075Z,7.03
2023-04-08T18:49:51.096Z,7.02
2023-04-08T18:52:25.044Z,7.01
2023-04-08T18:55:00.050Z,7.02
2023-04-08T18:57:34.731Z,7.04
2023-04-08T19:00:09.222Z,7.01
2023-04-08T19:02:42.038Z,7.00
2023-04-08T19:05:14.932Z,6.99
2023-04-08T19:07:48.273Z,6.99
2023-04-08T19:10:22.501Z,7.01
2023-04-08T19:12:55.209Z,7.05
2023-04-08T19:15:28.674Z,7.05
2023-04-08T19:18:01.550Z,7.06
2023-04-08T19:20:34.736Z,7.03
2023-04-08T19:23:08.433Z,6.99
2023-04-08T19:25:41.591Z,6.96
2023-04-08T19:28:14.091Z,6.82
2023-04-08T19:30:47.670Z,6.84
2023-04-08T19:33:23.698Z,6.87
2023-04-08T19:35:57.119Z,6.90
2023-04-08T19:38:30.937Z,6.91
2023-04-08T19:41:05.560Z,6.94
2023-04-08T19:43:38.753Z,6.91
2023-04-08T19:46:12.209Z,6.80
2023-04-08T19:48:45.695Z,6.79
2023-04-08T19:51:22.615Z,6.78
2023-04-08T19:53:55.848Z,6.75
2023-04-08T19:56:33.203Z,6.78
2023-04-08T19:59:06.107Z,6.82
2023-04-08T20:01:39.899Z,6.78
2023-04-08T20:04:12.602Z,6.68
2023-04-08T20:06:46.020Z,6.64
2023-04-08T20:09:19.957Z,6.53
2023-04-08T20:11:53.251Z,6.38
2023-04-08T20:14:27.166Z,6.28
2023-04-08T20:17:00.475Z,6.29
2023-04-08T20:19:33.078Z,6.24
2023-04-08T20:22:12.710Z,6.27
2023-04-08T20:24:47.862Z,6.21
2023-04-08T20:27:23.243Z,6.18
2023-04-08T20:29:56.251Z,6.21
2023-04-08T20:32:29.715Z,6.12
2023-04-08T20:35:03.053Z,6.00
2023-04-08T20:37:36.732Z,5.93
2023-04-08T20:40:11.202Z,5.87
2023-04-08T20:42:44.543Z,5.91
2023-04-08T20:45:17.107Z,6.03
2023-04-08T20:47:50.084Z,5.96
2023-04-08T20:50:22.600Z,6.02
2023-04-08T20:52:55.041Z,5.95
2023-04-08T20:55:28.850Z,5.91
2023-04-08T20:58:04.944Z,5.85
2023-04-08T21:00:37.766Z,5.83
2023-04-08T21:03:39.080Z,5.83
2023-04-08T21:07:18.494Z,5.74
2023-04-08T21:14:13.043Z,5.75
2023-04-08T21:17:39.516Z,5.53
2023-04-08T21:21:18.219Z,5.41
2023-04-08T21:24:58.284Z,5.45
2023-04-08T21:27:41.971Z,5.53
2023-04-08T21:30:58.712Z,5.48
2023-04-08T21:34:01.807Z,5.42
2023-04-08T21:36:59.440Z,5.53
2023-04-08T21:40:06.686Z,5.48
2023-04-08T21:48:59.312Z,5.67
2023-04-08T21:55:09.285Z,5.61
2023-04-08T21:57:41.985Z,5.59
2023-04-08T22:00:14.555Z,5.62
2023-04-08T22:02:51.742Z,5.68
2023-04-08T22:05:24.919Z,5.64
2023-04-08T22:07:57.486Z,5.61
2023-04-08T22:10:29.961Z,5.66
2023-04-08T22:13:02.388Z,5.72
2023-04-08T22:15:34.658Z,5.51
2023-04-08T22:18:06.931Z,5.50
2023-04-08T22:20:39.913Z,5.49
2023-04-08T22:23:12.203Z,5.56
2023-04-08T22:25:45.456Z,5.57
2023-04-08T22:28:17.755Z,5.54
2023-04-08T22:30:50.138Z,5.61
2023-04-08T22:33:22.511Z,5.69
2023-04-08T22:35:57.344Z,5.76
2023-04-08T22:38:30.515Z,5.75
2023-04-08T22:41:02.937Z,5.64
2023-04-08T22:43:35.190Z,5.81
2023-04-08T22:46:07.591Z,5.76
2023-04-08T22:48:40.372Z,5.77
2023-04-08T22:51:13.346Z,5.78
2023-04-08T22:53:45.948Z,5.81
2023-04-08T22:56:18.208Z,5.74
2023-04-08T22:58:50.827Z,5.70
2023-04-08T23:01:23.353Z,5.69
2023-04-08T23:03:55.689Z,5.67
2023-04-08T23:06:28.736Z,5.67
2023-04-08T23:09:01.416Z,5.72
2023-04-08T23:11:33.967Z,5.69
2023-04-08T23:14:06.326Z,5.72
2023-04-08T23:16:38.735Z,5.71
2023-04-08T23:19:11.157Z,5.73
2023-04-08T23:21:44.529Z,5.70
2023-04-08T23:24:16.954Z,5.71
2023-04-08T23:26:49.485Z,5.70
2023-04-08T23:29:21.888Z,5.65
2023-04-08T23:31:54.532Z,5.69
2023-04-08T23:34:27.074Z,5.69
2023-04-08T23:37:00.300Z,5.72
2023-04-08T23:39:32.700Z,5.55
2023-04-08T23:42:05.340Z,5.58
2023-04-08T23:44:37.762Z,5.58
2023-04-08T23:47:10.156Z,5.59
2023-04-08T23:49:42.422Z,5.63
2023-04-08T23:52:15.526Z,5.66
2023-04-08T23:54:50.089Z,5.69
2023-04-08T23:57:22.492Z,5.66
2023-04-08T23:59:54.819Z,5.67
